메인 페이지
METAR-TAF:

METAR-TAF

공항 :

코차밤바, 볼리비아

위도: 17-25S, 경도: 066-11W, 고도: 2548m

현재 날씨관측

예보는 6분 전, 07:00시(UTC)에 발표되었습니다.
북동3kt
온도 14°C
습도 82%
기압 1023 hPa
시정 10km 이상
고도 3000ft 상공 구름 조금
고도 3300ft 상공 구름 조금, 적란운.
고도 20000ft 상공 구름 많음

METAR: SLCB 220700Z 04003KT 9999 FEW030 FEW033CB BKN200 14/11 Q1023

시각: 03:06 (07:06 UTC)

예보

예보는 3 시간 6분 전, 04:00시(UTC)에 발표되었습니다.
예보 대상 시간: 22일 06시부터 23일 06시까지 (UTC)
kt
시정 10km 이상
고도 3000ft 상공 구름 조금
전환 중
22일 16시부터 22일 18시까지 (UTC)
서남서10kt
확률 30% :
일시적
22일 19시부터 22일 21시까지 (UTC)
고도 3600ft 상공 구름 조금, 적란운.
뇌우
일시적
22일 21시부터 22일 23시까지 (UTC)
동남동10kt
전환 중
23일 01시부터 23일 03시까지 (UTC)
kt

TAF: SLCB 220400Z 2206/2306 00000KT 9999 FEW030 TX32/2219Z TN11/2210Z BECMG 2216/2218 24010KT PROB30 TEMPO 2219/2221 TS FEW036CB TEMPO 2221/2223 12010KT BECMG 2301/2303 00000KT

4,000개 이상의 공항 관측 자료 및 예보 (METAR 및 TAF 보고).

지도상에서 검색 가능한 기상관측소가 노란 점과 빨간 점으로 표시되어 있습니다.

기상관측소 명을 보려면 표시 위로 마우스를 이동하세요.

날씨 관측과 예보를 보려면 클릭하세요.

지도 변경 : 확대하려면 엑스 표시가 있는 녹색 버튼, 축소하려면 빼기 표시가 있는 녹색 버튼, 다음 페이지의 지도를 보려면 녹색 화살표를 클릭하세요.


METAR-TAF: